sensor_id;sensor_type;location;lat;lon;timestamp;temperature;humidity
7998;DHT22;4044;49.814;7.828;2023-07-29T00:00:44;17.40;99.90
7998;DHT22;4044;49.814;7.828;2023-07-29T00:03:10;17.40;99.90
7998;DHT22;4044;49.814;7.828;2023-07-29T00:05:36;17.30;99.90
7998;DHT22;4044;49.814;7.828;2023-07-29T00:08:02;17.30;99.90
7998;DHT22;4044;49.814;7.828;2023-07-29T00:10:28;17.40;99.90
7998;DHT22;4044;49.814;7.828;2023-07-29T00:12:53;17.50;99.90
7998;DHT22;4044;49.814;7.828;2023-07-29T00:15:19;17.60;99.90
7998;DHT22;4044;49.814;7.828;2023-07-29T00:17:44;17.70;99.90
7998;DHT22;4044;49.814;7.828;2023-07-29T00:20:10;17.70;99.90
7998;DHT22;4044;49.814;7.828;2023-07-29T00:22:36;17.60;99.90
7998;DHT22;4044;49.814;7.828;2023-07-29T00:25:01;17.50;99.90
7998;DHT22;4044;49.814;7.828;2023-07-29T00:27:27;17.50;99.90
7998;DHT22;4044;49.814;7.828;2023-07-29T00:29:52;17.40;99.90
7998;DHT22;4044;49.814;7.828;2023-07-29T00:32:18;17.30;99.90
7998;DHT22;4044;49.814;7.828;2023-07-29T00:34:44;17.30;99.90
7998;DHT22;4044;49.814;7.828;2023-07-29T00:37:09;17.40;99.90
7998;DHT22;4044;49.814;7.828;2023-07-29T00:39:36;17.30;99.90
7998;DHT22;4044;49.814;7.828;2023-07-29T00:42:02;17.30;99.90
7998;DHT22;4044;49.814;7.828;2023-07-29T00:44:28;17.30;99.90
7998;DHT22;4044;49.814;7.828;2023-07-29T00:46:54;17.20;99.90
7998;DHT22;4044;49.814;7.828;2023-07-29T00:49:20;17.20;99.90
7998;DHT22;4044;49.814;7.828;2023-07-29T00:51:46;17.10;99.90
7998;DHT22;4044;49.814;7.828;2023-07-29T00:54:13;17.00;99.90
7998;DHT22;4044;49.814;7.828;2023-07-29T00:56:38;16.90;99.90
7998;DHT22;4044;49.814;7.828;2023-07-29T00:59:04;16.90;99.90
7998;DHT22;4044;49.814;7.828;2023-07-29T01:01:30;17.00;99.90
7998;DHT22;4044;49.814;7.828;2023-07-29T01:03:57;17.10;99.90
7998;DHT22;4044;49.814;7.828;2023-07-29T01:06:34;17.30;99.90
7998;DHT22;4044;49.814;7.828;2023-07-29T01:09:13;17.40;99.90
7998;DHT22;4044;49.814;7.828;2023-07-29T01:17:33;17.80;99.90
7998;DHT22;4044;49.814;7.828;2023-07-29T01:20:01;17.80;99.90
7998;DHT22;4044;49.814;7.828;2023-07-29T01:22:32;17.80;99.90
7998;DHT22;4044;49.814;7.828;2023-07-29T01:24:58;17.80;99.90
7998;DHT22;4044;49.814;7.828;2023-07-29T01:27:24;17.90;99.90
7998;DHT22;4044;49.814;7.828;2023-07-29T01:29:50;17.60;99.90
7998;DHT22;4044;49.814;7.828;2023-07-29T01:35:03;17.50;99.90
7998;DHT22;4044;49.814;7.828;2023-07-29T01:37:33;17.40;99.90
7998;DHT22;4044;49.814;7.828;2023-07-29T01:40:00;17.20;99.90
7998;DHT22;4044;49.814;7.828;2023-07-29T01:42:26;17.30;99.90
7998;DHT22;4044;49.814;7.828;2023-07-29T01:44:52;17.40;99.90
7998;DHT22;4044;49.814;7.828;2023-07-29T01:47:18;17.50;99.90
7998;DHT22;4044;49.814;7.828;2023-07-29T01:49:43;17.60;99.90
7998;DHT22;4044;49.814;7.828;2023-07-29T01:52:09;17.70;99.90
7998;DHT22;4044;49.814;7.828;2023-07-29T01:54:35;17.70;99.90
7998;DHT22;4044;49.814;7.828;2023-07-29T01:57:00;17.80;99.90
7998;DHT22;4044;49.814;7.828;2023-07-29T01:59:25;17.80;99.90
7998;DHT22;4044;49.814;7.828;2023-07-29T02:01:51;17.80;99.90
7998;DHT22;4044;49.814;7.828;2023-07-29T02:04:16;17.90;99.90
7998;DHT22;4044;49.814;7.828;2023-07-29T02:06:42;17.90;99.90
7998;DHT22;4044;49.814;7.828;2023-07-29T02:09:07;17.90;99.90
7998;DHT22;4044;49.814;7.828;2023-07-29T02:11:33;17.90;99.90
7998;DHT22;4044;49.814;7.828;2023-07-29T02:13:59;18.00;99.90
7998;DHT22;4044;49.814;7.828;2023-07-29T02:16:24;17.90;99.90
7998;DHT22;4044;49.814;7.828;2023-07-29T02:18:50;18.00;99.90
7998;DHT22;4044;49.814;7.828;2023-07-29T02:21:16;17.90;99.90
7998;DHT22;4044;49.814;7.828;2023-07-29T02:23:41;17.80;99.90
7998;DHT22;4044;49.814;7.828;2023-07-29T02:26:07;17.70;99.90
7998;DHT22;4044;49.814;7.828;2023-07-29T02:28:33;17.60;99.90
7998;DHT22;4044;49.814;7.828;2023-07-29T02:31:21;17.60;99.90
7998;DHT22;4044;49.814;7.828;2023-07-29T02:33:47;17.50;99.90
7998;DHT22;4044;49.814;7.828;2023-07-29T02:36:13;17.40;99.90
7998;DHT22;4044;49.814;7.828;2023-07-29T02:38:40;17.30;99.90
7998;DHT22;4044;49.814;7.828;2023-07-29T02:41:05;17.30;99.90
7998;DHT22;4044;49.814;7.828;2023-07-29T02:43:31;17.30;99.90
7998;DHT22;4044;49.814;7.828;2023-07-29T02:45:57;17.20;99.90
7998;DHT22;4044;49.814;7.828;2023-07-29T02:48:22;17.20;99.90
7998;DHT22;4044;49.814;7.828;2023-07-29T02:50:48;17.30;99.90
7998;DHT22;4044;49.814;7.828;2023-07-29T02:53:13;17.30;99.90
7998;DHT22;4044;49.814;7.828;2023-07-29T02:55:40;17.40;99.90
7998;DHT22;4044;49.814;7.828;2023-07-29T02:58:06;17.50;99.90
7998;DHT22;4044;49.814;7.828;2023-07-29T03:00:32;17.40;99.90
7998;DHT22;4044;49.814;7.828;2023-07-29T03:02:58;17.40;99.90
7998;DHT22;4044;49.814;7.828;2023-07-29T03:05:24;17.20;99.90
7998;DHT22;4044;49.814;7.828;2023-07-29T03:07:49;17.10;99.90
7998;DHT22;4044;49.814;7.828;2023-07-29T03:10:15;17.10;99.90
7998;DHT22;4044;49.814;7.828;2023-07-29T03:12:40;17.00;99.90
7998;DHT22;4044;49.814;7.828;2023-07-29T03:15:06;17.10;99.90
7998;DHT22;4044;49.814;7.828;2023-07-29T03:17:32;17.10;99.90
7998;DHT22;4044;49.814;7.828;2023-07-29T03:19:58;17.10;99.90
7998;DHT22;4044;49.814;7.828;2023-07-29T03:22:23;17.10;99.90
7998;DHT22;4044;49.814;7.828;2023-07-29T03:24:49;17.00;99.90
7998;DHT22;4044;49.814;7.828;2023-07-29T03:27:14;17.00;99.90
7998;DHT22;4044;49.814;7.828;2023-07-29T03:29:41;17.00;99.90
7998;DHT22;4044;49.814;7.828;2023-07-29T03:32:07;16.90;99.90
7998;DHT22;4044;49.814;7.828;2023-07-29T03:34:32;16.90;99.90
7998;DHT22;4044;49.814;7.828;2023-07-29T03:37:00;16.90;99.90
7998;DHT22;4044;49.814;7.828;2023-07-29T03:39:26;16.80;99.90
7998;DHT22;4044;49.814;7.828;2023-07-29T03:41:52;16.80;99.90
7998;DHT22;4044;49.814;7.828;2023-07-29T03:44:17;16.70;99.90
7998;DHT22;4044;49.814;7.828;2023-07-29T03:46:46;16.70;99.90
7998;DHT22;4044;49.814;7.828;2023-07-29T03:49:12;16.70;99.90
7998;DHT22;4044;49.814;7.828;2023-07-29T03:51:37;16.70;99.90
7998;DHT22;4044;49.814;7.828;2023-07-29T03:54:03;16.60;99.90
7998;DHT22;4044;49.814;7.828;2023-07-29T03:56:28;16.70;99.90
7998;DHT22;4044;49.814;7.828;2023-07-29T03:59:02;16.60;99.90
7998;DHT22;4044;49.814;7.828;2023-07-29T04:01:28;16.70;99.90
7998;DHT22;4044;49.814;7.828;2023-07-29T04:03:53;16.70;99.90
7998;DHT22;4044;49.814;7.828;2023-07-29T04:06:20;16.60;99.90
7998;DHT22;4044;49.814;7.828;2023-07-29T04:08:45;16.60;99.90
7998;DHT22;4044;49.814;7.828;2023-07-29T04:11:11;16.70;99.90
7998;DHT22;4044;49.814;7.828;2023-07-29T04:13:37;16.70;99.90
7998;DHT22;4044;49.814;7.828;2023-07-29T04:16:03;16.70;99.90
7998;DHT22;4044;49.814;7.828;2023-07-29T04:18:29;16.70;99.90
7998;DHT22;4044;49.814;7.828;2023-07-29T04:20:55;16.70;99.90
7998;DHT22;4044;49.814;7.828;2023-07-29T04:23:20;16.70;99.90
7998;DHT22;4044;49.814;7.828;2023-07-29T04:25:46;16.80;99.90
7998;DHT22;4044;49.814;7.828;2023-07-29T04:28:11;16.80;99.90
7998;DHT22;4044;49.814;7.828;2023-07-29T04:30:37;16.90;99.90
7998;DHT22;4044;49.814;7.828;2023-07-29T04:33:02;16.80;99.90
7998;DHT22;4044;49.814;7.828;2023-07-29T04:35:28;17.00;99.90
7998;DHT22;4044;49.814;7.828;2023-07-29T04:37:54;17.20;99.90
7998;DHT22;4044;49.814;7.828;2023-07-29T04:40:19;17.30;99.90
7998;DHT22;4044;49.814;7.828;2023-07-29T04:42:45;17.30;99.90
7998;DHT22;4044;49.814;7.828;2023-07-29T04:45:10;17.40;99.90
7998;DHT22;4044;49.814;7.828;2023-07-29T04:47:36;17.40;99.90
7998;DHT22;4044;49.814;7.828;2023-07-29T04:50:02;17.40;99.90
7998;DHT22;4044;49.814;7.828;2023-07-29T04:52:27;17.40;99.90
7998;DHT22;4044;49.814;7.828;2023-07-29T04:54:53;17.50;99.90
7998;DHT22;4044;49.814;7.828;2023-07-29T04:57:18;17.60;99.90
7998;DHT22;4044;49.814;7.828;2023-07-29T04:59:44;17.70;99.90
7998;DHT22;4044;49.814;7.828;2023-07-29T05:02:09;17.60;99.90
7998;DHT22;4044;49.814;7.828;2023-07-29T05:04:35;17.70;99.90
7998;DHT22;4044;49.814;7.828;2023-07-29T05:07:00;17.70;99.90
7998;DHT22;4044;49.814;7.828;2023-07-29T05:09:26;17.70;99.90
7998;DHT22;4044;49.814;7.828;2023-07-29T05:11:51;17.80;99.90
7998;DHT22;4044;49.814;7.828;2023-07-29T05:14:17;17.90;99.90
7998;DHT22;4044;49.814;7.828;2023-07-29T05:16:43;18.00;99.90
7998;DHT22;4044;49.814;7.828;2023-07-29T05:19:09;18.00;99.90
7998;DHT22;4044;49.814;7.828;2023-07-29T05:21:35;17.90;99.90
7998;DHT22;4044;49.814;7.828;2023-07-29T05:24:01;17.90;99.90
7998;DHT22;4044;49.814;7.828;2023-07-29T05:26:26;17.90;99.90
7998;DHT22;4044;49.814;7.828;2023-07-29T05:28:52;17.90;99.90
7998;DHT22;4044;49.814;7.828;2023-07-29T05:31:17;17.90;99.90
7998;DHT22;4044;49.814;7.828;2023-07-29T05:33:43;17.80;99.90
7998;DHT22;4044;49.814;7.828;2023-07-29T05:36:08;17.70;99.90
7998;DHT22;4044;49.814;7.828;2023-07-29T05:38:34;17.70;99.90
7998;DHT22;4044;49.814;7.828;2023-07-29T05:40:59;17.70;99.90
7998;DHT22;4044;49.814;7.828;2023-07-29T05:43:26;17.80;99.90
7998;DHT22;4044;49.814;7.828;2023-07-29T05:45:52;17.80;99.90
7998;DHT22;4044;49.814;7.828;2023-07-29T05:48:21;17.90;99.90
7998;DHT22;4044;49.814;7.828;2023-07-29T05:50:47;18.00;99.90
7998;DHT22;4044;49.814;7.828;2023-07-29T05:53:13;18.00;99.90
7998;DHT22;4044;49.814;7.828;2023-07-29T05:55:39;17.90;99.90
7998;DHT22;4044;49.814;7.828;2023-07-29T05:58:04;18.00;99.90
7998;DHT22;4044;49.814;7.828;2023-07-29T06:00:30;18.00;99.90
7998;DHT22;4044;49.814;7.828;2023-07-29T06:02:55;17.90;99.90
7998;DHT22;4044;49.814;7.828;2023-07-29T06:05:21;18.00;99.90
7998;DHT22;4044;49.814;7.828;2023-07-29T06:07:46;18.00;99.90
7998;DHT22;4044;49.814;7.828;2023-07-29T06:10:14;18.00;99.90
7998;DHT22;4044;49.814;7.828;2023-07-29T06:12:44;18.10;99.90
7998;DHT22;4044;49.814;7.828;2023-07-29T06:15:09;18.10;99.90
7998;DHT22;4044;49.814;7.828;2023-07-29T06:17:35;18.00;99.90
7998;DHT22;4044;49.814;7.828;2023-07-29T06:20:01;18.10;99.90
7998;DHT22;4044;49.814;7.828;2023-07-29T06:22:26;18.10;99.90
7998;DHT22;4044;49.814;7.828;2023-07-29T06:24:52;18.20;99.90
7998;DHT22;4044;49.814;7.828;2023-07-29T06:27:17;18.20;99.90
7998;DHT22;4044;49.814;7.828;2023-07-29T06:29:43;18.20;99.90
7998;DHT22;4044;49.814;7.828;2023-07-29T06:32:08;18.30;99.90
7998;DHT22;4044;49.814;7.828;2023-07-29T06:34:34;18.40;99.90
7998;DHT22;4044;49.814;7.828;2023-07-29T06:36:59;18.30;99.90
7998;DHT22;4044;49.814;7.828;2023-07-29T06:39:25;18.20;99.90
7998;DHT22;4044;49.814;7.828;2023-07-29T06:41:50;18.30;99.90
7998;DHT22;4044;49.814;7.828;2023-07-29T06:44:16;18.30;99.90
7998;DHT22;4044;49.814;7.828;2023-07-29T06:46:42;18.60;99.90
7998;DHT22;4044;49.814;7.828;2023-07-29T06:49:07;18.70;99.90
7998;DHT22;4044;49.814;7.828;2023-07-29T06:51:33;18.80;99.90
7998;DHT22;4044;49.814;7.828;2023-07-29T06:54:00;18.90;99.90
7998;DHT22;4044;49.814;7.828;2023-07-29T06:56:26;19.10;99.90
7998;DHT22;4044;49.814;7.828;2023-07-29T06:58:52;19.10;99.90
7998;DHT22;4044;49.814;7.828;2023-07-29T07:01:17;19.10;99.90
7998;DHT22;4044;49.814;7.828;2023-07-29T07:03:43;19.10;99.90
7998;DHT22;4044;49.814;7.828;2023-07-29T07:06:08;19.20;99.90
7998;DHT22;4044;49.814;7.828;2023-07-29T07:08:34;19.30;99.90
7998;DHT22;4044;49.814;7.828;2023-07-29T07:10:59;19.40;99.90
7998;DHT22;4044;49.814;7.828;2023-07-29T07:13:25;19.40;99.90
7998;DHT22;4044;49.814;7.828;2023-07-29T07:15:50;19.40;99.90
7998;DHT22;4044;49.814;7.828;2023-07-29T07:18:19;19.60;99.90
7998;DHT22;4044;49.814;7.828;2023-07-29T07:20:48;19.70;99.90
7998;DHT22;4044;49.814;7.828;2023-07-29T07:23:15;19.40;99.90
7998;DHT22;4044;49.814;7.828;2023-07-29T07:25:41;19.20;99.90
7998;DHT22;4044;49.814;7.828;2023-07-29T07:28:08;19.40;99.90
7998;DHT22;4044;49.814;7.828;2023-07-29T07:30:33;19.70;99.90
7998;DHT22;4044;49.814;7.828;2023-07-29T07:32:59;20.00;99.90
7998;DHT22;4044;49.814;7.828;2023-07-29T07:35:24;20.40;99.90
7998;DHT22;4044;49.814;7.828;2023-07-29T07:37:50;20.60;99.90
7998;DHT22;4044;49.814;7.828;2023-07-29T07:40:15;20.70;99.90
7998;DHT22;4044;49.814;7.828;2023-07-29T07:42:41;20.80;99.90
7998;DHT22;4044;49.814;7.828;2023-07-29T07:45:06;20.80;99.90
7998;DHT22;4044;49.814;7.828;2023-07-29T07:47:32;20.80;99.90
7998;DHT22;4044;49.814;7.828;2023-07-29T07:49:58;20.50;99.90
7998;DHT22;4044;49.814;7.828;2023-07-29T07:52:23;20.40;99.90
7998;DHT22;4044;49.814;7.828;2023-07-29T07:54:53;20.60;99.90
7998;DHT22;4044;49.814;7.828;2023-07-29T07:57:20;20.80;99.90
7998;DHT22;4044;49.814;7.828;2023-07-29T07:59:45;20.80;99.90
7998;DHT22;4044;49.814;7.828;2023-07-29T08:02:11;20.90;99.90
7998;DHT22;4044;49.814;7.828;2023-07-29T08:04:36;20.70;99.90
7998;DHT22;4044;49.814;7.828;2023-07-29T08:07:02;20.90;99.90
7998;DHT22;4044;49.814;7.828;2023-07-29T08:09:27;20.90;99.90
7998;DHT22;4044;49.814;7.828;2023-07-29T08:11:53;21.20;99.90
7998;DHT22;4044;49.814;7.828;2023-07-29T08:14:18;21.30;99.90
7998;DHT22;4044;49.814;7.828;2023-07-29T08:16:44;21.40;99.90
7998;DHT22;4044;49.814;7.828;2023-07-29T08:19:09;21.40;99.90
7998;DHT22;4044;49.814;7.828;2023-07-29T08:21:35;21.20;99.90
7998;DHT22;4044;49.814;7.828;2023-07-29T08:24:01;21.10;99.90
7998;DHT22;4044;49.814;7.828;2023-07-29T08:26:27;20.90;99.90
7998;DHT22;4044;49.814;7.828;2023-07-29T08:28:52;20.90;99.90
7998;DHT22;4044;49.814;7.828;2023-07-29T08:31:18;20.80;99.90
7998;DHT22;4044;49.814;7.828;2023-07-29T08:33:43;20.80;99.90
7998;DHT22;4044;49.814;7.828;2023-07-29T08:36:09;20.90;99.90
7998;DHT22;4044;49.814;7.828;2023-07-29T08:38:35;21.00;99.90
7998;DHT22;4044;49.814;7.828;2023-07-29T08:41:16;21.50;99.90
7998;DHT22;4044;49.814;7.828;2023-07-29T08:46:15;22.20;99.90
7998;DHT22;4044;49.814;7.828;2023-07-29T08:48:42;22.10;99.90
7998;DHT22;4044;49.814;7.828;2023-07-29T08:51:09;21.90;99.90
7998;DHT22;4044;49.814;7.828;2023-07-29T08:53:35;21.80;99.90
7998;DHT22;4044;49.814;7.828;2023-07-29T08:56:02;22.00;99.90
7998;DHT22;4044;49.814;7.828;2023-07-29T08:58:27;21.90;99.90
7998;DHT22;4044;49.814;7.828;2023-07-29T09:00:53;22.00;99.90
7998;DHT22;4044;49.814;7.828;2023-07-29T09:03:20;21.80;99.90
7998;DHT22;4044;49.814;7.828;2023-07-29T09:05:46;21.70;99.90
7998;DHT22;4044;49.814;7.828;2023-07-29T09:08:12;21.80;99.90
7998;DHT22;4044;49.814;7.828;2023-07-29T09:10:37;22.00;99.90
7998;DHT22;4044;49.814;7.828;2023-07-29T09:13:04;22.20;99.90
7998;DHT22;4044;49.814;7.828;2023-07-29T09:15:31;22.20;99.90
7998;DHT22;4044;49.814;7.828;2023-07-29T09:17:57;22.40;99.90
7998;DHT22;4044;49.814;7.828;2023-07-29T09:20:29;22.20;99.90
7998;DHT22;4044;49.814;7.828;2023-07-29T09:22:55;21.90;99.90
7998;DHT22;4044;49.814;7.828;2023-07-29T09:25:25;21.90;99.90
7998;DHT22;4044;49.814;7.828;2023-07-29T09:27:50;21.90;99.90
7998;DHT22;4044;49.814;7.828;2023-07-29T09:30:17;22.00;99.90
7998;DHT22;4044;49.814;7.828;2023-07-29T09:32:42;22.20;99.90
7998;DHT22;4044;49.814;7.828;2023-07-29T09:35:14;22.30;99.90
7998;DHT22;4044;49.814;7.828;2023-07-29T09:37:39;22.20;99.90
7998;DHT22;4044;49.814;7.828;2023-07-29T09:40:06;22.20;99.90
7998;DHT22;4044;49.814;7.828;2023-07-29T09:42:32;22.50;99.90
7998;DHT22;4044;49.814;7.828;2023-07-29T09:44:57;22.70;99.90
7998;DHT22;4044;49.814;7.828;2023-07-29T09:47:24;22.90;99.90
7998;DHT22;4044;49.814;7.828;2023-07-29T09:49:50;23.10;99.90
7998;DHT22;4044;49.814;7.828;2023-07-29T09:52:17;23.20;99.90
7998;DHT22;4044;49.814;7.828;2023-07-29T09:54:44;23.30;99.90
7998;DHT22;4044;49.814;7.828;2023-07-29T09:57:19;23.40;99.90
7998;DHT22;4044;49.814;7.828;2023-07-29T09:59:57;23.50;99.90
7998;DHT22;4044;49.814;7.828;2023-07-29T10:02:23;24.00;99.90
7998;DHT22;4044;49.814;7.828;2023-07-29T10:04:51;24.00;99.90
7998;DHT22;4044;49.814;7.828;2023-07-29T10:07:17;24.00;99.90
7998;DHT22;4044;49.814;7.828;2023-07-29T10:09:45;23.70;99.90
7998;DHT22;4044;49.814;7.828;2023-07-29T10:12:11;23.50;99.90
7998;DHT22;4044;49.814;7.828;2023-07-29T10:14:38;23.70;99.90
7998;DHT22;4044;49.814;7.828;2023-07-29T10:17:05;23.90;99.90
7998;DHT22;4044;49.814;7.828;2023-07-29T10:19:31;24.10;99.90
7998;DHT22;4044;49.814;7.828;2023-07-29T10:21:59;24.30;99.90
7998;DHT22;4044;49.814;7.828;2023-07-29T10:24:32;24.60;99.90
7998;DHT22;4044;49.814;7.828;2023-07-29T10:26:59;24.90;99.90
7998;DHT22;4044;49.814;7.828;2023-07-29T10:29:30;24.90;99.90
7998;DHT22;4044;49.814;7.828;2023-07-29T10:31:57;24.70;99.90
7998;DHT22;4044;49.814;7.828;2023-07-29T10:34:24;24.30;99.90
7998;DHT22;4044;49.814;7.828;2023-07-29T10:36:50;24.10;99.90
7998;DHT22;4044;49.814;7.828;2023-07-29T10:39:16;24.40;99.90
7998;DHT22;4044;49.814;7.828;2023-07-29T10:42:01;24.70;99.90
7998;DHT22;4044;49.814;7.828;2023-07-29T10:47:37;25.30;99.90
7998;DHT22;4044;49.814;7.828;2023-07-29T10:50:17;25.40;99.90
7998;DHT22;4044;49.814;7.828;2023-07-29T10:52:49;25.50;99.30
7998;DHT22;4044;49.814;7.828;2023-07-29T10:55:29;25.70;98.60
7998;DHT22;4044;49.814;7.828;2023-07-29T10:58:28;25.80;97.70
7998;DHT22;4044;49.814;7.828;2023-07-29T11:00:55;25.50;96.60
7998;DHT22;4044;49.814;7.828;2023-07-29T11:03:21;25.50;96.40
7998;DHT22;4044;49.814;7.828;2023-07-29T11:05:51;25.60;98.20
7998;DHT22;4044;49.814;7.828;2023-07-29T11:10:45;25.80;95.40
7998;DHT22;4044;49.814;7.828;2023-07-29T11:13:22;25.70;93.10
7998;DHT22;4044;49.814;7.828;2023-07-29T11:15:49;25.30;93.10
7998;DHT22;4044;49.814;7.828;2023-07-29T11:18:15;25.20;93.80
7998;DHT22;4044;49.814;7.828;2023-07-29T11:20:41;25.40;95.20
7998;DHT22;4044;49.814;7.828;2023-07-29T11:23:07;25.50;95.80
7998;DHT22;4044;49.814;7.828;2023-07-29T11:25:32;25.50;93.60
7998;DHT22;4044;49.814;7.828;2023-07-29T11:28:01;25.50;94.60
7998;DHT22;4044;49.814;7.828;2023-07-29T11:30:27;25.60;92.90
7998;DHT22;4044;49.814;7.828;2023-07-29T11:32:54;25.80;93.90
7998;DHT22;4044;49.814;7.828;2023-07-29T11:35:23;26.00;93.20
7998;DHT22;4044;49.814;7.828;2023-07-29T11:37:50;26.10;92.40
7998;DHT22;4044;49.814;7.828;2023-07-29T11:40:21;26.30;93.10
7998;DHT22;4044;49.814;7.828;2023-07-29T11:42:50;26.40;91.20
7998;DHT22;4044;49.814;7.828;2023-07-29T11:45:16;26.50;92.60
7998;DHT22;4044;49.814;7.828;2023-07-29T11:47:41;26.50;92.00
7998;DHT22;4044;49.814;7.828;2023-07-29T11:50:09;26.40;91.30
7998;DHT22;4044;49.814;7.828;2023-07-29T11:52:36;26.60;91.20
7998;DHT22;4044;49.814;7.828;2023-07-29T11:55:03;26.70;90.60
7998;DHT22;4044;49.814;7.828;2023-07-29T11:57:30;26.80;89.20
7998;DHT22;4044;49.814;7.828;2023-07-29T11:59:55;27.10;90.30
7998;DHT22;4044;49.814;7.828;2023-07-29T12:02:22;27.20;88.70
7998;DHT22;4044;49.814;7.828;2023-07-29T12:04:48;28.40;90.00
7998;DHT22;4044;49.814;7.828;2023-07-29T12:07:16;29.30;85.20
7998;DHT22;4044;49.814;7.828;2023-07-29T12:09:42;30.40;82.50
7998;DHT22;4044;49.814;7.828;2023-07-29T12:12:08;31.20;83.40
7998;DHT22;4044;49.814;7.828;2023-07-29T12:14:34;31.80;78.20
7998;DHT22;4044;49.814;7.828;2023-07-29T12:17:04;32.40;75.60
7998;DHT22;4044;49.814;7.828;2023-07-29T12:19:35;32.30;73.70
7998;DHT22;4044;49.814;7.828;2023-07-29T12:22:02;30.80;76.50
7998;DHT22;4044;49.814;7.828;2023-07-29T12:24:29;31.10;75.60
7998;DHT22;4044;49.814;7.828;2023-07-29T12:26:55;30.70;74.00
7998;DHT22;4044;49.814;7.828;2023-07-29T12:29:21;31.50;75.80
7998;DHT22;4044;49.814;7.828;2023-07-29T12:31:48;32.00;71.80
7998;DHT22;4044;49.814;7.828;2023-07-29T12:34:20;31.70;71.60
7998;DHT22;4044;49.814;7.828;2023-07-29T12:36:50;31.70;73.90
7998;DHT22;4044;49.814;7.828;2023-07-29T12:39:21;32.20;73.70
7998;DHT22;4044;49.814;7.828;2023-07-29T12:41:51;33.20;72.30
7998;DHT22;4044;49.814;7.828;2023-07-29T12:44:17;32.30;65.70
7998;DHT22;4044;49.814;7.828;2023-07-29T12:46:43;32.50;65.60
7998;DHT22;4044;49.814;7.828;2023-07-29T12:49:08;32.70;65.10
7998;DHT22;4044;49.814;7.828;2023-07-29T12:51:34;33.10;65.00
7998;DHT22;4044;49.814;7.828;2023-07-29T12:54:00;33.40;62.60
7998;DHT22;4044;49.814;7.828;2023-07-29T12:56:25;32.00;63.20
7998;DHT22;4044;49.814;7.828;2023-07-29T12:58:51;31.90;64.80
7998;DHT22;4044;49.814;7.828;2023-07-29T13:01:17;33.00;65.20
7998;DHT22;4044;49.814;7.828;2023-07-29T13:03:47;33.70;63.40
7998;DHT22;4044;49.814;7.828;2023-07-29T13:06:13;34.80;64.70
7998;DHT22;4044;49.814;7.828;2023-07-29T13:08:38;34.90;60.20
7998;DHT22;4044;49.814;7.828;2023-07-29T13:11:04;35.10;60.80
7998;DHT22;4044;49.814;7.828;2023-07-29T13:13:30;35.40;61.20
7998;DHT22;4044;49.814;7.828;2023-07-29T13:15:57;36.20;58.50
7998;DHT22;4044;49.814;7.828;2023-07-29T13:18:22;35.90;57.10
7998;DHT22;4044;49.814;7.828;2023-07-29T13:20:48;35.70;57.00
7998;DHT22;4044;49.814;7.828;2023-07-29T13:23:14;34.60;58.90
7998;DHT22;4044;49.814;7.828;2023-07-29T13:25:41;34.60;58.30
7998;DHT22;4044;49.814;7.828;2023-07-29T13:28:06;34.80;62.70
7998;DHT22;4044;49.814;7.828;2023-07-29T13:30:32;35.30;57.90
7998;DHT22;4044;49.814;7.828;2023-07-29T13:32:58;36.00;57.40
7998;DHT22;4044;49.814;7.828;2023-07-29T13:35:24;36.00;58.20
7998;DHT22;4044;49.814;7.828;2023-07-29T13:37:49;35.00;59.50
7998;DHT22;4044;49.814;7.828;2023-07-29T13:40:15;34.50;57.30
7998;DHT22;4044;49.814;7.828;2023-07-29T13:42:40;33.50;57.60
7998;DHT22;4044;49.814;7.828;2023-07-29T13:45:06;34.50;58.40
7998;DHT22;4044;49.814;7.828;2023-07-29T13:47:32;34.60;57.20
7998;DHT22;4044;49.814;7.828;2023-07-29T13:49:59;35.70;55.80
7998;DHT22;4044;49.814;7.828;2023-07-29T13:52:24;35.80;54.30
7998;DHT22;4044;49.814;7.828;2023-07-29T13:54:50;36.40;57.50
7998;DHT22;4044;49.814;7.828;2023-07-29T13:57:15;36.60;54.70
7998;DHT22;4044;49.814;7.828;2023-07-29T13:59:41;35.10;56.30
7998;DHT22;4044;49.814;7.828;2023-07-29T14:02:06;34.40;57.60
7998;DHT22;4044;49.814;7.828;2023-07-29T14:04:33;32.90;58.20
7998;DHT22;4044;49.814;7.828;2023-07-29T14:06:58;31.50;58.80
7998;DHT22;4044;49.814;7.828;2023-07-29T14:09:25;30.60;62.60
7998;DHT22;4044;49.814;7.828;2023-07-29T14:11:51;30.00;64.50
7998;DHT22;4044;49.814;7.828;2023-07-29T14:14:16;30.20;63.90
7998;DHT22;4044;49.814;7.828;2023-07-29T14:16:42;30.80;63.10
7998;DHT22;4044;49.814;7.828;2023-07-29T14:19:07;31.40;64.60
7998;DHT22;4044;49.814;7.828;2023-07-29T14:21:33;30.60;63.40
7998;DHT22;4044;49.814;7.828;2023-07-29T14:23:58;30.20;67.20
7998;DHT22;4044;49.814;7.828;2023-07-29T14:26:24;30.30;68.50
7998;DHT22;4044;49.814;7.828;2023-07-29T14:28:49;31.30;64.20
7998;DHT22;4044;49.814;7.828;2023-07-29T14:31:16;32.00;61.10
7998;DHT22;4044;49.814;7.828;2023-07-29T14:33:44;31.70;66.20
7998;DHT22;4044;49.814;7.828;2023-07-29T14:36:10;32.10;64.50
7998;DHT22;4044;49.814;7.828;2023-07-29T14:38:36;31.50;63.40
7998;DHT22;4044;49.814;7.828;2023-07-29T14:41:01;31.10;62.60
7998;DHT22;4044;49.814;7.828;2023-07-29T14:43:27;31.20;65.50
7998;DHT22;4044;49.814;7.828;2023-07-29T14:45:52;31.30;64.30
7998;DHT22;4044;49.814;7.828;2023-07-29T14:48:18;30.20;63.00
7998;DHT22;4044;49.814;7.828;2023-07-29T14:50:44;29.70;65.10
7998;DHT22;4044;49.814;7.828;2023-07-29T14:53:10;29.50;66.60
7998;DHT22;4044;49.814;7.828;2023-07-29T14:55:37;29.70;66.20
7998;DHT22;4044;49.814;7.828;2023-07-29T14:58:02;29.90;65.10
7998;DHT22;4044;49.814;7.828;2023-07-29T15:00:28;31.00;63.40
7998;DHT22;4044;49.814;7.828;2023-07-29T15:02:53;30.80;62.70
7998;DHT22;4044;49.814;7.828;2023-07-29T15:05:19;31.80;63.50
7998;DHT22;4044;49.814;7.828;2023-07-29T15:07:44;32.80;61.60
7998;DHT22;4044;49.814;7.828;2023-07-29T15:10:10;34.30;61.70
7998;DHT22;4044;49.814;7.828;2023-07-29T15:12:35;35.00;56.00
7998;DHT22;4044;49.814;7.828;2023-07-29T15:15:01;35.60;56.40
7998;DHT22;4044;49.814;7.828;2023-07-29T15:17:27;35.80;54.50
7998;DHT22;4044;49.814;7.828;2023-07-29T15:19:52;35.10;54.40
7998;DHT22;4044;49.814;7.828;2023-07-29T15:22:18;35.10;56.40
7998;DHT22;4044;49.814;7.828;2023-07-29T15:24:43;35.60;56.40
7998;DHT22;4044;49.814;7.828;2023-07-29T15:27:10;35.80;54.70
7998;DHT22;4044;49.814;7.828;2023-07-29T15:29:36;35.60;55.70
7998;DHT22;4044;49.814;7.828;2023-07-29T15:32:01;35.90;53.70
7998;DHT22;4044;49.814;7.828;2023-07-29T15:34:27;36.00;55.60
7998;DHT22;4044;49.814;7.828;2023-07-29T15:36:59;35.60;53.30
7998;DHT22;4044;49.814;7.828;2023-07-29T15:39:25;35.90;54.70
7998;DHT22;4044;49.814;7.828;2023-07-29T15:41:51;36.00;52.60
7998;DHT22;4044;49.814;7.828;2023-07-29T15:44:17;35.00;53.00
7998;DHT22;4044;49.814;7.828;2023-07-29T15:46:43;32.90;56.00
7998;DHT22;4044;49.814;7.828;2023-07-29T15:49:08;31.70;58.70
7998;DHT22;4044;49.814;7.828;2023-07-29T15:51:35;31.10;62.00
7998;DHT22;4044;49.814;7.828;2023-07-29T15:54:01;31.30;61.70
7998;DHT22;4044;49.814;7.828;2023-07-29T15:56:29;32.90;61.30
7998;DHT22;4044;49.814;7.828;2023-07-29T15:58:56;34.30;57.00
7998;DHT22;4044;49.814;7.828;2023-07-29T16:01:22;34.60;57.50
7998;DHT22;4044;49.814;7.828;2023-07-29T16:03:48;34.80;57.20
7998;DHT22;4044;49.814;7.828;2023-07-29T16:06:13;35.70;55.70
7998;DHT22;4044;49.814;7.828;2023-07-29T16:08:39;36.00;55.00
7998;DHT22;4044;49.814;7.828;2023-07-29T16:11:05;35.80;56.60
7998;DHT22;4044;49.814;7.828;2023-07-29T16:13:30;36.70;54.90